createdAt,value
2017-08-13T00:02:23.562Z,8.40
2017-08-13T00:04:51.131Z,7.67
2017-08-13T00:07:19.487Z,9.27
2017-08-13T00:09:47.056Z,7.90
2017-08-13T00:12:15.394Z,7.70
2017-08-13T00:14:43.014Z,8.03
2017-08-13T00:17:10.595Z,8.60
2017-08-13T00:19:38.175Z,7.63
2017-08-13T00:22:05.750Z,6.03
2017-08-13T00:24:33.367Z,6.27
2017-08-13T00:27:00.934Z,6.40
2017-08-13T00:29:28.499Z,7.60
2017-08-13T00:31:56.089Z,7.17
2017-08-13T00:34:23.843Z,6.57
2017-08-13T00:36:51.443Z,6.30
2017-08-13T00:39:19.766Z,7.00
2017-08-13T00:41:47.328Z,6.70
2017-08-13T00:44:15.023Z,7.07
2017-08-13T00:46:43.355Z,7.90
2017-08-13T00:49:10.939Z,6.47
2017-08-13T00:51:38.490Z,5.83
2017-08-13T00:54:06.104Z,7.60
2017-08-13T00:56:33.699Z,6.77
2017-08-13T00:59:01.266Z,6.80
2017-08-13T01:01:28.888Z,6.43
2017-08-13T01:03:56.468Z,6.77
2017-08-13T01:06:24.032Z,6.77
2017-08-13T01:08:51.631Z,6.20
2017-08-13T01:11:20.044Z,6.60
2017-08-13T01:13:47.640Z,7.30
2017-08-13T01:16:15.216Z,7.30
2017-08-13T01:18:43.599Z,7.20
2017-08-13T01:21:11.924Z,7.23
2017-08-13T01:23:39.632Z,6.83
2017-08-13T01:26:07.227Z,7.40
2017-08-13T01:28:34.863Z,7.57
2017-08-13T01:31:03.232Z,6.67
2017-08-13T01:33:31.562Z,7.80
2017-08-13T01:35:59.176Z,7.70
2017-08-13T01:38:27.538Z,7.00
2017-08-13T01:40:55.103Z,6.93
2017-08-13T01:43:22.695Z,7.87
2017-08-13T01:45:50.255Z,7.33
2017-08-13T01:48:17.824Z,7.53
2017-08-13T01:50:45.413Z,7.90
2017-08-13T01:53:12.979Z,7.33
2017-08-13T01:55:40.567Z,7.60
2017-08-13T01:58:08.900Z,6.90
2017-08-13T02:00:36.503Z,7.77
2017-08-13T02:03:04.835Z,7.77
2017-08-13T02:05:32.407Z,9.20
2017-08-13T02:08:00.032Z,9.70
2017-08-13T02:10:27.786Z,9.53
2017-08-13T02:12:55.421Z,9.80
2017-08-13T02:15:23.747Z,9.87
2017-08-13T02:17:51.312Z,8.97
2017-08-13T02:20:18.966Z,10.00
2017-08-13T02:22:46.545Z,10.07
2017-08-13T02:25:14.368Z,9.30
2017-08-13T02:27:42.052Z,11.03
2017-08-13T02:30:09.644Z,10.80
2017-08-13T02:32:37.974Z,10.30
2017-08-13T02:35:05.543Z,10.97
2017-08-13T02:37:33.131Z,9.10
2017-08-13T02:40:00.700Z,10.30
2017-08-13T02:42:29.065Z,8.93
2017-08-13T02:44:56.628Z,9.33
2017-08-13T02:47:24.968Z,8.37
2017-08-13T02:49:52.556Z,8.23
2017-08-13T02:52:20.120Z,9.13
2017-08-13T02:54:47.723Z,10.00
2017-08-13T02:57:15.288Z,10.27
2017-08-13T02:59:42.887Z,10.23
2017-08-13T03:02:10.446Z,8.50
2017-08-13T03:04:38.013Z,8.90
2017-08-13T03:07:06.390Z,8.60
2017-08-13T03:09:34.780Z,10.40
2017-08-13T03:12:03.135Z,8.77
2017-08-13T03:14:30.694Z,8.57
2017-08-13T03:16:58.260Z,8.03
2017-08-13T03:19:26.616Z,8.07
2017-08-13T03:21:54.175Z,6.77
2017-08-13T03:24:21.779Z,7.20
2017-08-13T03:26:49.348Z,7.87
2017-08-13T03:29:16.945Z,7.57
2017-08-13T03:31:44.583Z,7.40
2017-08-13T03:34:12.191Z,7.57
2017-08-13T03:36:40.604Z,7.83
2017-08-13T03:39:08.198Z,7.23
2017-08-13T03:41:35.788Z,6.90
2017-08-13T03:44:04.115Z,7.43
2017-08-13T03:46:31.699Z,6.63
2017-08-13T03:48:59.295Z,6.47
2017-08-13T03:51:27.697Z,8.63
2017-08-13T03:53:55.371Z,9.17
2017-08-13T03:56:22.983Z,8.97
2017-08-13T03:58:51.350Z,8.63
2017-08-13T04:01:18.911Z,9.90
2017-08-13T04:03:47.247Z,10.50
2017-08-13T04:06:14.846Z,10.47
2017-08-13T04:08:43.171Z,10.27
2017-08-13T04:11:10.774Z,10.03
2017-08-13T04:13:38.343Z,10.73
2017-08-13T04:16:06.711Z,9.73
2017-08-13T04:18:34.279Z,10.77
2017-08-13T04:21:02.619Z,11.30
2017-08-13T04:23:30.208Z,9.20
2017-08-13T04:25:58.542Z,9.63
2017-08-13T04:28:26.135Z,8.67
2017-08-13T04:30:53.775Z,11.33
2017-08-13T04:33:21.420Z,8.43
2017-08-13T04:35:49.014Z,8.93
2017-08-13T04:38:16.603Z,9.13
2017-08-13T04:40:44.186Z,7.70
2017-08-13T04:43:11.839Z,8.33
2017-08-13T04:45:39.396Z,7.60
2017-08-13T04:48:06.992Z,7.80
2017-08-13T04:50:34.554Z,8.00
2017-08-13T04:53:02.152Z,9.20
2017-08-13T04:55:30.664Z,8.70
2017-08-13T04:57:58.263Z,9.00
2017-08-13T05:00:25.831Z,9.10
2017-08-13T05:02:54.163Z,8.40
2017-08-13T05:05:21.767Z,8.40
2017-08-13T05:07:50.099Z,8.30
2017-08-13T05:10:17.719Z,7.03
2017-08-13T05:12:46.140Z,9.03
2017-08-13T05:15:13.703Z,8.03
2017-08-13T05:17:41.295Z,7.40
2017-08-13T05:20:08.861Z,6.43
2017-08-13T05:22:37.231Z,6.30
2017-08-13T05:25:04.798Z,5.87
2017-08-13T05:27:33.155Z,6.20
2017-08-13T05:30:00.751Z,5.40
2017-08-13T05:32:28.542Z,5.50
2017-08-13T05:34:56.135Z,4.53
2017-08-13T05:37:23.691Z,4.70
2017-08-13T05:39:51.266Z,4.70
2017-08-13T05:42:19.611Z,5.50
2017-08-13T05:44:47.237Z,4.80
2017-08-13T05:47:14.831Z,4.30
2017-08-13T05:49:42.395Z,4.67
2017-08-13T05:52:10.007Z,5.17
2017-08-13T05:54:37.562Z,4.20
2017-08-13T05:57:05.143Z,5.23
2017-08-13T05:59:32.735Z,4.90
2017-08-13T06:02:00.299Z,5.67
2017-08-13T06:04:27.855Z,6.03
2017-08-13T06:06:55.451Z,5.10
2017-08-13T06:09:23.023Z,5.10
2017-08-13T06:11:50.623Z,5.60
2017-08-13T06:14:18.186Z,5.90
2017-08-13T06:16:45.779Z,5.07
2017-08-13T06:19:13.347Z,3.93
2017-08-13T06:21:40.929Z,4.00
2017-08-13T06:24:08.528Z,4.30
2017-08-13T06:26:36.091Z,4.00
2017-08-13T06:29:03.680Z,4.10
2017-08-13T06:31:31.256Z,4.43
2017-08-13T06:33:58.823Z,3.87
2017-08-13T06:36:26.407Z,4.30
2017-08-13T06:38:53.963Z,4.60
2017-08-13T06:41:21.567Z,4.50
2017-08-13T06:43:49.131Z,4.50
2017-08-13T06:46:16.724Z,4.50
2017-08-13T06:48:44.288Z,4.20
2017-08-13T06:51:11.899Z,4.13
2017-08-13T06:53:39.482Z,5.13
2017-08-13T06:56:07.055Z,4.20
2017-08-13T06:58:34.856Z,4.00
2017-08-13T07:01:03.207Z,4.00
2017-08-13T07:03:30.771Z,4.17
2017-08-13T07:05:58.426Z,4.77
2017-08-13T07:08:26.023Z,4.10
2017-08-13T07:10:54.410Z,4.53
2017-08-13T07:13:22.039Z,3.60
2017-08-13T07:15:49.599Z,4.53
2017-08-13T07:18:17.162Z,4.27
2017-08-13T07:20:44.754Z,4.23
2017-08-13T07:23:12.315Z,4.57
2017-08-13T07:25:39.955Z,4.13
2017-08-13T07:28:08.315Z,3.47
2017-08-13T07:30:36.009Z,4.20
2017-08-13T07:33:03.583Z,4.20
2017-08-13T07:35:31.160Z,4.17
2017-08-13T07:37:58.819Z,3.60
2017-08-13T07:40:26.422Z,3.73
2017-08-13T07:42:55.061Z,3.73
2017-08-13T07:45:22.640Z,4.80
2017-08-13T07:47:50.230Z,3.90
2017-08-13T07:50:18.592Z,3.37
2017-08-13T07:52:46.155Z,4.17
2017-08-13T07:55:14.504Z,4.00
2017-08-13T07:57:42.055Z,3.93
2017-08-13T08:00:09.639Z,3.80
2017-08-13T08:02:37.239Z,4.30
2017-08-13T08:05:04.803Z,4.60
2017-08-13T08:07:32.595Z,4.50
2017-08-13T08:10:00.260Z,4.23
2017-08-13T08:12:28.020Z,4.13
2017-08-13T08:14:55.586Z,3.20
2017-08-13T08:17:23.140Z,3.30
2017-08-13T08:19:50.868Z,4.10
2017-08-13T08:22:18.438Z,3.33
2017-08-13T08:24:46.003Z,3.53
2017-08-13T08:27:13.586Z,3.70
2017-08-13T08:29:41.159Z,3.37
2017-08-13T08:32:08.760Z,3.50
2017-08-13T08:34:36.358Z,3.60
2017-08-13T08:37:04.035Z,3.57
2017-08-13T08:39:31.587Z,3.47
2017-08-13T08:41:59.148Z,3.07
2017-08-13T08:44:26.760Z,3.50
2017-08-13T08:46:54.327Z,3.50
2017-08-13T08:49:21.895Z,3.40
2017-08-13T08:51:49.492Z,3.43
2017-08-13T08:54:17.836Z,3.03
2017-08-13T08:56:45.583Z,2.73
2017-08-13T08:59:13.183Z,2.60
2017-08-13T09:01:40.768Z,3.90
2017-08-13T09:04:08.413Z,3.20
2017-08-13T09:06:36.941Z,3.53
2017-08-13T09:09:04.543Z,3.30
2017-08-13T09:11:32.111Z,3.60
2017-08-13T09:14:00.452Z,3.57
2017-08-13T09:16:28.040Z,3.17
2017-08-13T09:18:56.370Z,3.10
2017-08-13T09:21:23.964Z,2.67
2017-08-13T09:23:51.617Z,2.70
2017-08-13T09:26:19.220Z,2.83
2017-08-13T09:28:46.811Z,2.47
2017-08-13T09:31:14.457Z,2.63
2017-08-13T09:33:42.058Z,2.33
2017-08-13T09:36:09.623Z,2.20
2017-08-13T09:38:37.191Z,2.37
2017-08-13T09:41:05.651Z,2.57
2017-08-13T09:43:33.295Z,2.57
2017-08-13T09:46:00.887Z,2.20
2017-08-13T09:48:29.215Z,1.93
2017-08-13T09:50:56.783Z,2.47
2017-08-13T09:53:24.374Z,2.90
2017-08-13T09:55:51.951Z,2.50
2017-08-13T09:58:20.316Z,2.00
2017-08-13T10:00:48.662Z,2.67
2017-08-13T10:03:16.351Z,2.30
2017-08-13T10:05:43.919Z,1.83
2017-08-13T10:08:12.291Z,2.00
2017-08-13T10:10:40.666Z,2.13
2017-08-13T10:13:09.005Z,1.83
2017-08-13T10:15:36.566Z,1.70
2017-08-13T10:18:04.157Z,1.80
2017-08-13T10:20:31.734Z,1.60
2017-08-13T10:22:59.331Z,1.87
2017-08-13T10:25:26.913Z,2.00
2017-08-13T10:27:54.500Z,1.90
2017-08-13T10:30:22.836Z,1.80
2017-08-13T10:32:50.431Z,1.97
2017-08-13T10:35:18.876Z,2.10
2017-08-13T10:37:46.448Z,2.00
2017-08-13T10:40:14.044Z,2.17
2017-08-13T10:42:42.387Z,2.23
2017-08-13T10:45:09.997Z,2.60
2017-08-13T10:47:37.591Z,2.30
2017-08-13T10:50:05.191Z,2.50
2017-08-13T10:52:33.550Z,2.70
2017-08-13T10:55:01.115Z,2.77
2017-08-13T10:57:29.463Z,2.33
2017-08-13T10:59:57.038Z,2.43
2017-08-13T11:02:24.618Z,2.47
2017-08-13T11:04:53.088Z,2.10
2017-08-13T11:07:21.484Z,2.50
2017-08-13T11:09:49.071Z,2.60
2017-08-13T11:12:16.666Z,2.20
2017-08-13T11:14:44.263Z,2.30
2017-08-13T11:17:11.831Z,2.53
2017-08-13T11:19:39.434Z,2.67
2017-08-13T11:22:07.003Z,2.37
2017-08-13T11:24:34.568Z,2.20
2017-08-13T11:27:02.951Z,2.70
2017-08-13T11:29:31.279Z,2.70
2017-08-13T11:31:58.884Z,2.37
2017-08-13T11:34:26.463Z,2.17
2017-08-13T11:36:54.323Z,2.60
2017-08-13T11:39:22.679Z,1.90
2017-08-13T11:41:50.354Z,2.20
2017-08-13T11:44:17.959Z,2.17
2017-08-13T11:46:45.514Z,3.10
2017-08-13T11:49:13.073Z,2.80
2017-08-13T11:51:40.667Z,2.23
2017-08-13T11:54:08.261Z,2.63
2017-08-13T11:56:35.847Z,2.43
2017-08-13T11:59:03.456Z,2.10
2017-08-13T12:01:31.796Z,2.30
2017-08-13T12:03:59.374Z,2.37
2017-08-13T12:06:26.974Z,2.73
2017-08-13T12:08:54.546Z,2.87
2017-08-13T12:11:22.140Z,2.07
2017-08-13T12:13:49.712Z,2.20
2017-08-13T12:16:17.275Z,2.20
2017-08-13T12:18:44.868Z,2.83
2017-08-13T12:21:12.459Z,2.67
2017-08-13T12:23:40.034Z,2.30
2017-08-13T12:26:07.627Z,2.00
2017-08-13T12:28:35.999Z,2.57
2017-08-13T12:31:04.344Z,2.63
2017-08-13T12:33:31.960Z,2.80
2017-08-13T12:35:59.547Z,2.70
2017-08-13T12:38:27.300Z,2.93
2017-08-13T12:40:54.917Z,3.33
2017-08-13T12:43:23.338Z,2.70
2017-08-13T12:45:50.959Z,3.00
2017-08-13T12:48:19.279Z,2.60
2017-08-13T12:50:46.876Z,2.73
2017-08-13T12:53:14.444Z,3.07
2017-08-13T12:55:42.771Z,2.40
2017-08-13T12:58:10.379Z,3.00
2017-08-13T13:00:38.715Z,2.60
2017-08-13T13:03:06.315Z,2.40
2017-08-13T13:05:34.658Z,2.50
2017-08-13T13:08:02.225Z,2.13
2017-08-13T13:10:29.843Z,2.10
2017-08-13T13:12:58.623Z,2.70
2017-08-13T13:15:26.230Z,2.07
2017-08-13T13:17:53.807Z,2.10
2017-08-13T13:20:21.464Z,2.03
2017-08-13T13:22:49.031Z,2.30
2017-08-13T13:25:17.398Z,2.17
2017-08-13T13:27:44.968Z,2.57
2017-08-13T13:30:13.311Z,2.50
2017-08-13T13:32:40.928Z,2.17
2017-08-13T13:35:08.604Z,2.60
2017-08-13T13:37:36.230Z,2.17
2017-08-13T13:40:04.564Z,2.20
2017-08-13T13:42:32.122Z,2.20
2017-08-13T13:44:59.728Z,1.90
2017-08-13T13:47:28.071Z,2.70
2017-08-13T13:49:55.727Z,2.33
2017-08-13T13:52:23.408Z,2.30
2017-08-13T13:54:50.966Z,2.03
2017-08-13T13:57:19.327Z,1.93
2017-08-13T13:59:46.891Z,1.77
2017-08-13T14:02:14.500Z,2.00
2017-08-13T14:04:42.078Z,1.90
2017-08-13T14:07:09.647Z,1.70
2017-08-13T14:09:37.256Z,1.70
2017-08-13T14:12:05.667Z,1.63
2017-08-13T14:14:33.278Z,1.60
2017-08-13T14:17:01.612Z,1.43
2017-08-13T14:19:29.188Z,1.73
2017-08-13T14:21:56.782Z,1.60
2017-08-13T14:24:25.117Z,1.80
2017-08-13T14:26:52.864Z,1.67
2017-08-13T14:29:20.529Z,1.80
2017-08-13T14:31:48.111Z,1.90
2017-08-13T14:34:15.710Z,1.50
2017-08-13T14:36:43.268Z,1.93
2017-08-13T14:39:10.915Z,1.50
2017-08-13T14:41:39.264Z,1.47
2017-08-13T14:44:06.833Z,1.90
2017-08-13T14:46:34.475Z,1.50
2017-08-13T14:49:02.063Z,1.80
2017-08-13T14:51:30.395Z,1.87
2017-08-13T14:53:58.003Z,1.63
2017-08-13T14:56:25.639Z,1.53
2017-08-13T14:58:53.387Z,1.80
2017-08-13T15:01:21.089Z,1.90
2017-08-13T15:03:49.476Z,1.50
2017-08-13T15:06:17.111Z,1.40
2017-08-13T15:08:44.682Z,1.13
2017-08-13T15:11:13.107Z,1.90
2017-08-13T15:13:40.680Z,1.50
2017-08-13T15:16:08.240Z,1.60
2017-08-13T15:18:35.827Z,1.70
2017-08-13T15:21:04.183Z,1.70
2017-08-13T15:23:31.748Z,1.80
2017-08-13T15:25:59.313Z,1.80
2017-08-13T15:28:26.903Z,1.67
2017-08-13T15:30:54.477Z,1.73
2017-08-13T15:33:22.075Z,1.83
2017-08-13T15:35:49.636Z,2.07
2017-08-13T15:38:17.243Z,1.50
2017-08-13T15:40:44.823Z,2.00
2017-08-13T15:43:12.402Z,1.80
2017-08-13T15:45:40.008Z,1.83
2017-08-13T15:48:07.585Z,1.47
2017-08-13T15:50:35.182Z,2.10
2017-08-13T15:53:02.746Z,1.30
2017-08-13T15:55:30.392Z,1.77
2017-08-13T15:57:58.004Z,1.50
2017-08-13T16:00:25.615Z,1.77
2017-08-13T16:02:53.207Z,1.97
2017-08-13T16:05:21.535Z,1.30
2017-08-13T16:07:49.131Z,1.40
2017-08-13T16:10:16.703Z,2.23
2017-08-13T16:12:45.129Z,1.93
2017-08-13T16:15:12.708Z,1.60
2017-08-13T16:17:40.375Z,1.70
2017-08-13T16:20:08.059Z,1.70
2017-08-13T16:22:36.400Z,1.57
2017-08-13T16:25:03.983Z,1.67
2017-08-13T16:27:31.592Z,1.60
2017-08-13T16:29:59.194Z,1.70
2017-08-13T16:32:26.792Z,1.47
2017-08-13T16:34:54.421Z,1.60
2017-08-13T16:37:21.998Z,1.70
2017-08-13T16:39:50.335Z,2.10
2017-08-13T16:42:17.944Z,1.53
2017-08-13T16:44:45.513Z,1.50
2017-08-13T16:47:13.139Z,1.80
2017-08-13T16:49:41.618Z,1.40
2017-08-13T16:52:09.995Z,1.80
2017-08-13T16:54:38.336Z,1.60
2017-08-13T16:57:05.915Z,2.00
2017-08-13T16:59:33.519Z,1.60
2017-08-13T17:02:01.083Z,2.20
2017-08-13T17:04:28.667Z,2.30
2017-08-13T17:06:56.283Z,2.00
2017-08-13T17:09:23.847Z,1.90
2017-08-13T17:11:51.435Z,2.17
2017-08-13T17:14:19.024Z,2.50
2017-08-13T17:16:46.587Z,3.10
2017-08-13T17:19:14.201Z,2.40
2017-08-13T17:21:41.768Z,2.10
2017-08-13T17:24:09.360Z,2.20
2017-08-13T17:26:36.930Z,2.20
2017-08-13T17:29:04.548Z,2.50
2017-08-13T17:31:32.123Z,2.50
2017-08-13T17:33:59.760Z,2.30
2017-08-13T17:36:27.392Z,2.40
2017-08-13T17:38:54.974Z,2.30
2017-08-13T17:41:22.553Z,2.10
2017-08-13T17:43:50.158Z,2.17
2017-08-13T17:46:18.520Z,2.30
2017-08-13T17:48:46.155Z,2.17
2017-08-13T17:51:13.760Z,2.10
2017-08-13T17:53:41.352Z,1.93
2017-08-13T17:56:08.940Z,2.10
2017-08-13T17:58:36.563Z,2.00
2017-08-13T18:01:04.142Z,1.83
2017-08-13T18:03:31.712Z,2.07
2017-08-13T18:05:59.304Z,2.17
2017-08-13T18:08:27.648Z,1.77
2017-08-13T18:10:55.319Z,2.03
2017-08-13T18:13:22.905Z,2.20
2017-08-13T18:15:51.281Z,1.77
2017-08-13T18:18:19.623Z,1.97
2017-08-13T18:20:47.186Z,2.03
2017-08-13T18:23:14.791Z,2.10
2017-08-13T18:25:42.524Z,1.80
2017-08-13T18:28:11.011Z,1.80
2017-08-13T18:30:39.368Z,2.30
2017-08-13T18:33:06.939Z,2.00
2017-08-13T18:35:35.302Z,1.97
2017-08-13T18:38:02.872Z,2.17
2017-08-13T18:40:31.235Z,2.27
2017-08-13T18:42:58.816Z,2.00
2017-08-13T18:45:27.188Z,2.20
2017-08-13T18:47:55.679Z,2.67
2017-08-13T18:50:24.093Z,2.40
2017-08-13T18:52:53.335Z,2.40
2017-08-13T18:55:20.903Z,2.30
2017-08-13T18:57:49.285Z,2.07
2017-08-13T19:00:17.632Z,2.17
2017-08-13T19:02:45.232Z,2.27
2017-08-13T19:05:12.799Z,1.93
2017-08-13T19:07:40.372Z,2.80
2017-08-13T19:10:07.972Z,2.80
2017-08-13T19:12:35.553Z,3.40
2017-08-13T19:15:04.023Z,2.80
2017-08-13T19:17:32.382Z,2.63
2017-08-13T19:19:59.959Z,2.63
2017-08-13T19:22:28.340Z,3.40
2017-08-13T19:24:56.694Z,2.30
2017-08-13T19:27:24.296Z,2.63
2017-08-13T19:29:51.907Z,2.90
2017-08-13T19:32:19.607Z,3.10
2017-08-13T19:34:48.012Z,3.00
2017-08-13T19:37:15.604Z,2.90
2017-08-13T19:39:43.181Z,2.80
2017-08-13T19:42:10.880Z,2.63
2017-08-13T19:44:38.488Z,2.43
2017-08-13T19:47:06.047Z,2.63
2017-08-13T19:49:33.652Z,2.90
2017-08-13T19:52:01.336Z,2.90
2017-08-13T19:54:28.959Z,2.80
2017-08-13T19:56:57.319Z,3.17
2017-08-13T20:01:59.111Z,3.10
2017-08-13T20:04:27.471Z,3.40
2017-08-13T20:06:55.841Z,3.60
2017-08-13T20:09:23.467Z,5.13
2017-08-13T20:11:51.026Z,3.63
2017-08-13T20:14:18.607Z,3.73
2017-08-13T20:16:46.239Z,3.60
2017-08-13T20:19:13.825Z,3.47
2017-08-13T20:21:41.450Z,3.60
2017-08-13T20:24:09.019Z,3.40
2017-08-13T20:26:36.616Z,3.57
2017-08-13T20:29:04.222Z,3.40
2017-08-13T20:31:31.791Z,2.97
2017-08-13T20:33:59.387Z,3.50
2017-08-13T20:36:26.955Z,3.00
2017-08-13T20:38:55.395Z,3.53
2017-08-13T20:41:22.991Z,3.83
2017-08-13T20:43:51.359Z,3.30
2017-08-13T20:46:19.079Z,3.70
2017-08-13T20:48:46.647Z,3.40
2017-08-13T20:51:14.211Z,3.43
2017-08-13T20:53:41.798Z,3.57
2017-08-13T20:56:09.503Z,3.70
2017-08-13T20:58:37.119Z,3.67
2017-08-13T21:01:05.507Z,3.70
2017-08-13T21:03:33.887Z,4.00
2017-08-13T21:06:02.267Z,3.87
2017-08-13T21:08:30.613Z,3.93
2017-08-13T21:10:58.236Z,3.90
2017-08-13T21:13:25.822Z,3.30
2017-08-13T21:15:53.401Z,4.00
2017-08-13T21:18:21.116Z,4.40
2017-08-13T21:20:48.675Z,4.00
2017-08-13T21:23:16.275Z,4.47
2017-08-13T21:25:43.849Z,3.80
2017-08-13T21:28:12.179Z,4.97
2017-08-13T21:30:39.772Z,4.47
2017-08-13T21:33:07.356Z,4.43
2017-08-13T21:35:35.716Z,4.70
2017-08-13T21:38:04.055Z,4.20
2017-08-13T21:40:31.645Z,4.90
2017-08-13T21:42:59.216Z,4.67
2017-08-13T21:45:27.543Z,5.00
2017-08-13T21:47:55.146Z,4.70
2017-08-13T21:50:22.713Z,4.90
2017-08-13T21:52:51.088Z,4.90
2017-08-13T21:55:19.419Z,5.00
2017-08-13T21:57:46.995Z,4.70
2017-08-13T22:00:14.575Z,4.60
2017-08-13T22:02:42.987Z,4.77
2017-08-13T22:05:10.771Z,5.00
2017-08-13T22:07:38.425Z,4.90
2017-08-13T22:10:06.074Z,4.80
2017-08-13T22:12:33.664Z,5.27
2017-08-13T22:15:01.239Z,4.60
2017-08-13T22:17:28.924Z,5.07
2017-08-13T22:19:57.276Z,5.07
2017-08-13T22:22:24.859Z,4.73
2017-08-13T22:24:53.235Z,4.70
2017-08-13T22:27:21.575Z,4.73
2017-08-13T22:29:49.163Z,4.83
2017-08-13T22:32:17.499Z,4.30
2017-08-13T22:34:45.200Z,4.90
2017-08-13T22:37:13.583Z,4.93
2017-08-13T22:39:41.920Z,4.60
2017-08-13T22:42:09.503Z,4.77
2017-08-13T22:44:37.119Z,4.83
2017-08-13T22:47:04.712Z,5.07
2017-08-13T22:49:32.294Z,5.97
2017-08-13T22:51:59.867Z,5.43
2017-08-13T22:54:27.487Z,5.30
2017-08-13T22:56:55.048Z,5.17
2017-08-13T22:59:22.697Z,5.77
2017-08-13T23:01:50.295Z,5.67
2017-08-13T23:04:18.644Z,5.83
2017-08-13T23:06:46.242Z,5.27
2017-08-13T23:09:13.936Z,5.33
2017-08-13T23:11:41.527Z,6.03
2017-08-13T23:14:09.119Z,5.47
2017-08-13T23:16:36.763Z,4.70
2017-08-13T23:19:05.127Z,5.13
2017-08-13T23:21:32.680Z,4.60
2017-08-13T23:24:00.295Z,5.27
2017-08-13T23:26:27.892Z,5.00
2017-08-13T23:28:55.447Z,5.07
2017-08-13T23:31:23.067Z,4.87
2017-08-13T23:33:50.708Z,5.30
2017-08-13T23:36:18.279Z,4.70
2017-08-13T23:38:45.947Z,5.37
2017-08-13T23:41:13.519Z,5.33
2017-08-13T23:43:41.139Z,5.73
2017-08-13T23:46:09.521Z,6.13
2017-08-13T23:48:37.185Z,5.30
2017-08-13T23:51:04.764Z,6.70
2017-08-13T23:53:32.327Z,6.40
2017-08-13T23:55:59.928Z,6.20
2017-08-13T23:58:27.499Z,6.70
